createdAt,value
2023-04-11T00:20:53.755Z,41.30
2023-04-11T00:35:56.746Z,38.90
2023-04-11T00:50:59.942Z,37.20
2023-04-11T01:06:06.460Z,33.90
2023-04-11T01:21:09.784Z,37.90
2023-04-11T01:36:13.040Z,36.40
2023-04-11T01:51:15.897Z,36.20
2023-04-11T02:06:18.706Z,36.30
2023-04-11T02:21:22.388Z,36.50
2023-04-11T02:36:26.792Z,45.40
2023-04-11T02:51:29.658Z,39.00
2023-04-11T03:06:33.334Z,44.90
2023-04-11T03:21:36.189Z,37.50
2023-04-11T03:36:38.908Z,38.90
2023-04-11T03:51:41.695Z,36.60
2023-04-11T04:06:45.995Z,34.80
2023-04-11T04:21:50.092Z,40.40
2023-04-11T04:36:56.374Z,33.50
2023-04-11T04:51:59.224Z,35.20
2023-04-11T05:07:02.065Z,33.30
2023-04-11T05:22:04.634Z,36.50
2023-04-11T06:07:13.005Z,38.80
2023-04-11T06:22:16.010Z,35.50
2023-04-11T06:37:19.072Z,33.40
2023-04-11T06:52:22.160Z,35.40
2023-04-11T07:07:24.789Z,37.80
2023-04-11T07:37:32.602Z,38.10
2023-04-11T07:52:35.321Z,39.50
2023-04-11T08:22:44.462Z,36.40
2023-04-11T08:37:48.798Z,37.20
2023-04-11T08:52:53.008Z,31.70
2023-04-11T09:07:57.294Z,29.60
2023-04-11T09:23:00.210Z,27.60
2023-04-11T09:38:05.149Z,26.20
2023-04-11T09:53:09.000Z,23.50
2023-04-11T10:08:32.736Z,21.70
2023-04-11T10:24:07.953Z,17.70
2023-04-11T10:39:11.125Z,19.00
2023-04-11T10:54:26.853Z,18.70
2023-04-11T11:09:30.671Z,15.30
2023-04-11T11:24:33.292Z,14.60
2023-04-11T11:39:36.152Z,17.70
2023-04-11T11:54:47.125Z,4.80
2023-04-11T12:09:49.862Z,5.20
2023-04-11T12:39:55.700Z,4.20
2023-04-11T13:25:07.047Z,4.00
2023-04-11T13:40:12.355Z,3.80
2023-04-11T13:55:16.065Z,6.80
2023-04-11T14:10:18.857Z,5.80
2023-04-11T14:25:22.476Z,5.40
2023-04-11T14:40:25.377Z,4.00
2023-04-11T14:55:28.337Z,4.40
2023-04-11T15:10:31.167Z,5.00
2023-04-11T15:25:33.742Z,4.50
2023-04-11T15:40:37.802Z,5.80
2023-04-11T15:55:42.042Z,5.30
2023-04-11T16:10:44.927Z,7.50
2023-04-11T16:25:47.571Z,6.30
2023-04-11T16:55:53.628Z,4.00
2023-04-11T17:11:07.367Z,3.40
2023-04-11T17:26:12.157Z,3.90
2023-04-11T17:41:15.822Z,4.20
2023-04-11T17:56:19.511Z,5.40
2023-04-11T18:11:22.487Z,8.60
2023-04-11T18:41:27.979Z,2.10
2023-04-11T18:56:30.805Z,1.70
2023-04-11T19:11:35.213Z,22.10
2023-04-11T19:26:38.189Z,18.60
2023-04-11T19:56:49.229Z,10.90
2023-04-11T20:11:52.167Z,11.70
2023-04-11T20:26:56.972Z,10.20
2023-04-11T20:42:02.596Z,7.60
2023-04-11T20:57:05.371Z,6.60
2023-04-11T21:12:08.091Z,5.50
2023-04-11T21:27:10.662Z,7.40
2023-04-11T21:57:15.986Z,8.10
2023-04-11T22:12:18.799Z,8.30
2023-04-11T22:27:21.514Z,9.10
2023-04-11T22:42:24.835Z,8.40
2023-04-11T22:57:27.536Z,9.10
2023-04-11T23:12:30.795Z,8.70
2023-04-11T23:27:33.538Z,7.50
2023-04-11T23:42:37.629Z,8.40
2023-04-11T23:57:41.024Z,7.10
